createdAt,value
2018-07-16T00:01:18.765Z,99.90
2018-07-16T00:03:47.807Z,99.90
2018-07-16T00:06:16.497Z,99.90
2018-07-16T00:08:45.475Z,99.90
2018-07-16T00:11:14.550Z,99.90
2018-07-16T00:13:45.190Z,99.90
2018-07-16T00:16:13.794Z,99.90
2018-07-16T00:18:42.742Z,99.90
2018-07-16T00:21:11.218Z,99.90
2018-07-16T00:23:41.206Z,99.90
2018-07-16T00:26:10.104Z,99.90
2018-07-16T00:28:38.357Z,99.90
2018-07-16T00:31:07.728Z,99.90
2018-07-16T00:33:37.148Z,99.90
2018-07-16T00:36:05.657Z,99.90
2018-07-16T00:38:34.536Z,99.90
2018-07-16T00:41:03.434Z,99.90
2018-07-16T00:43:31.638Z,99.90
2018-07-16T00:46:01.398Z,99.90
2018-07-16T00:48:30.219Z,99.90
2018-07-16T00:50:59.468Z,99.90
2018-07-16T00:53:27.642Z,99.90
2018-07-16T00:55:56.457Z,99.90
2018-07-16T00:58:24.606Z,99.90
2018-07-16T01:00:53.581Z,99.90
2018-07-16T01:03:22.701Z,99.90
2018-07-16T01:05:51.422Z,99.90
2018-07-16T01:08:19.894Z,99.90
2018-07-16T01:10:49.374Z,99.90
2018-07-16T01:13:17.593Z,99.90
2018-07-16T01:15:46.613Z,99.90
2018-07-16T01:18:15.449Z,99.90
2018-07-16T01:20:44.129Z,99.90
2018-07-16T01:23:12.524Z,99.90
2018-07-16T01:25:41.978Z,99.90
2018-07-16T01:28:10.589Z,99.90
2018-07-16T01:30:40.138Z,99.90
2018-07-16T01:33:08.450Z,99.90
2018-07-16T01:35:37.490Z,99.90
2018-07-16T01:38:05.998Z,99.90
2018-07-16T01:40:34.697Z,99.90
2018-07-16T01:43:04.644Z,99.90
2018-07-16T01:45:33.440Z,99.90
2018-07-16T01:48:01.991Z,99.90
2018-07-16T01:50:31.040Z,99.90
2018-07-16T01:52:59.540Z,99.90
2018-07-16T01:55:29.022Z,99.90
2018-07-16T01:57:58.357Z,99.90
2018-07-16T02:00:27.111Z,99.90
2018-07-16T02:02:56.046Z,99.90
2018-07-16T02:07:54.553Z,99.90
2018-07-16T02:10:22.797Z,99.90
2018-07-16T02:12:52.658Z,99.90
2018-07-16T02:15:23.007Z,99.90
2018-07-16T02:17:51.641Z,99.90
2018-07-16T02:20:20.478Z,99.90
2018-07-16T02:22:49.160Z,99.90
2018-07-16T02:25:17.567Z,99.90
2018-07-16T02:27:46.452Z,99.90
2018-07-16T02:30:15.457Z,99.90
2018-07-16T02:32:43.546Z,99.90
2018-07-16T02:35:12.141Z,99.90
2018-07-16T02:37:40.850Z,99.90
2018-07-16T02:40:10.007Z,99.90
2018-07-16T02:42:39.067Z,99.90
2018-07-16T02:45:08.794Z,99.90
2018-07-16T02:47:37.382Z,99.90
2018-07-16T02:50:07.035Z,99.90
2018-07-16T02:55:04.473Z,99.90
2018-07-16T02:57:33.563Z,99.90
2018-07-16T03:00:02.839Z,99.90
2018-07-16T03:02:33.409Z,99.90
2018-07-16T03:05:02.260Z,99.90
2018-07-16T03:07:31.854Z,99.90
2018-07-16T03:10:00.174Z,99.90
2018-07-16T03:12:29.467Z,99.90
2018-07-16T03:14:58.153Z,99.90
2018-07-16T04:39:25.421Z,99.90
2018-07-16T04:41:55.550Z,99.90
2018-07-16T04:44:24.645Z,99.90
2018-07-16T04:49:21.245Z,99.90
2018-07-16T04:51:50.054Z,99.90
2018-07-16T04:54:19.038Z,99.90
2018-07-16T04:56:48.031Z,99.90
2018-07-16T04:59:16.106Z,99.90
2018-07-16T05:01:44.297Z,99.90
2018-07-16T05:04:12.629Z,99.90
2018-07-16T05:06:41.105Z,99.90
2018-07-16T05:09:10.013Z,99.90
2018-07-16T05:11:39.370Z,99.90
2018-07-16T05:19:05.805Z,99.90
2018-07-16T05:21:34.586Z,99.90
2018-07-16T05:24:03.144Z,99.90
2018-07-16T05:26:31.973Z,99.90
2018-07-16T05:29:01.086Z,99.90
2018-07-16T05:33:59.156Z,99.90
2018-07-16T05:36:28.138Z,99.90
2018-07-16T05:38:57.664Z,99.90
2018-07-16T05:41:26.321Z,99.90
2018-07-16T05:43:54.934Z,99.90
2018-07-16T05:46:23.996Z,99.90
2018-07-16T05:48:52.771Z,99.90
2018-07-16T05:51:21.811Z,99.90
2018-07-16T05:53:51.179Z,99.90
2018-07-16T05:56:20.087Z,99.90
2018-07-16T05:58:50.013Z,99.90
2018-07-16T06:01:19.949Z,99.90
2018-07-16T06:06:16.922Z,99.90
2018-07-16T06:08:45.946Z,99.90
2018-07-16T06:11:14.646Z,99.90
2018-07-16T06:13:43.119Z,99.90
2018-07-16T06:16:11.730Z,99.90
2018-07-16T06:18:41.999Z,99.90
2018-07-16T06:21:10.553Z,99.90
2018-07-16T06:23:39.917Z,99.90
2018-07-16T06:26:09.898Z,99.90
2018-07-16T06:28:39.653Z,99.90
2018-07-16T06:31:08.393Z,99.90
2018-07-16T06:33:37.051Z,99.90
2018-07-16T06:36:05.751Z,99.90
2018-07-16T06:38:34.596Z,99.90
2018-07-16T06:41:04.001Z,99.90
2018-07-16T06:43:32.201Z,99.90
2018-07-16T06:46:01.542Z,99.90
2018-07-16T06:48:30.703Z,99.90
2018-07-16T06:50:58.985Z,99.90
2018-07-16T06:53:27.869Z,99.90
2018-07-16T06:55:57.709Z,99.70
2018-07-16T07:00:55.870Z,99.20
2018-07-16T07:03:24.161Z,99.40
2018-07-16T07:05:53.066Z,98.80
2018-07-16T07:08:21.677Z,98.50
2018-07-16T07:10:51.624Z,99.70
2018-07-16T07:13:20.425Z,96.40
2018-07-16T07:15:48.909Z,94.30
2018-07-16T07:18:17.883Z,94.80
2018-07-16T07:20:47.009Z,92.70
2018-07-16T07:23:15.707Z,92.90
2018-07-16T07:25:45.822Z,93.00
2018-07-16T07:28:14.146Z,92.80
2018-07-16T07:30:44.159Z,93.00
2018-07-16T07:33:12.437Z,91.50
2018-07-16T07:35:41.400Z,91.30
2018-07-16T07:40:38.317Z,89.50
2018-07-16T07:43:07.425Z,81.10
2018-07-16T07:45:36.190Z,84.20
2018-07-16T07:48:04.820Z,81.00
2018-07-16T07:50:33.870Z,85.00
2018-07-16T07:53:02.609Z,82.50
2018-07-16T07:55:32.168Z,90.00
2018-07-16T07:58:00.915Z,86.90
2018-07-16T08:00:30.590Z,85.80
2018-07-16T08:02:58.959Z,84.20
2018-07-16T08:05:27.664Z,78.30
2018-07-16T08:07:55.846Z,79.10
2018-07-16T08:10:25.658Z,75.60
2018-07-16T08:12:54.038Z,78.80
2018-07-16T08:15:24.077Z,78.60
2018-07-16T08:17:52.827Z,80.00
2018-07-16T08:20:21.775Z,81.80
2018-07-16T08:22:51.214Z,85.70
2018-07-16T08:25:19.942Z,81.80
2018-07-16T08:27:49.981Z,74.60
2018-07-16T08:30:18.340Z,77.60
2018-07-16T08:32:47.921Z,75.70
2018-07-16T08:35:17.827Z,81.90
2018-07-16T08:37:46.279Z,77.60
2018-07-16T08:40:15.271Z,72.10
2018-07-16T08:42:44.217Z,70.10
2018-07-16T08:45:13.247Z,64.60
2018-07-16T08:47:41.721Z,69.70
2018-07-16T08:50:12.227Z,68.60
2018-07-16T08:52:40.406Z,68.40
2018-07-16T08:55:09.418Z,65.10
2018-07-16T08:57:38.468Z,64.60
2018-07-16T09:00:07.887Z,62.80
2018-07-16T09:02:36.893Z,61.10
2018-07-16T09:05:05.893Z,68.10
2018-07-16T09:07:34.966Z,65.40
2018-07-16T09:10:04.125Z,61.30
2018-07-16T09:12:33.643Z,62.60
2018-07-16T09:15:02.597Z,58.40
2018-07-16T09:17:30.792Z,59.00
2018-07-16T09:19:59.745Z,59.60
2018-07-16T09:22:28.339Z,57.50
2018-07-16T09:24:57.636Z,54.80
2018-07-16T09:27:26.759Z,54.00
2018-07-16T09:29:55.987Z,56.30
2018-07-16T09:32:25.078Z,60.60
2018-07-16T09:34:54.148Z,54.40
2018-07-16T09:37:22.698Z,56.60
2018-07-16T09:39:50.950Z,58.00
2018-07-16T09:42:19.475Z,58.00
2018-07-16T09:44:48.579Z,56.10
2018-07-16T09:47:17.435Z,53.40
2018-07-16T09:49:47.516Z,54.40
2018-07-16T09:54:44.725Z,59.40
2018-07-16T09:57:13.731Z,62.90
2018-07-16T09:59:42.639Z,59.40
2018-07-16T10:02:16.654Z,55.60
2018-07-16T10:04:45.980Z,52.10
2018-07-16T10:07:15.265Z,50.80
2018-07-16T10:09:44.689Z,49.60
2018-07-16T10:12:12.813Z,55.20
2018-07-16T10:14:42.854Z,51.50
2018-07-16T10:17:11.269Z,53.50
2018-07-16T10:19:40.592Z,52.30
2018-07-16T10:22:08.990Z,49.60
2018-07-16T10:24:38.362Z,46.90
2018-07-16T10:27:07.389Z,48.70
2018-07-16T10:29:36.642Z,50.60
2018-07-16T10:32:06.686Z,51.80
2018-07-16T10:34:35.710Z,49.70
2018-07-16T10:37:04.686Z,49.30
2018-07-16T10:39:33.880Z,47.70
2018-07-16T10:42:03.727Z,49.40
2018-07-16T10:44:32.807Z,50.00
2018-07-16T10:47:02.301Z,53.40
2018-07-16T10:49:32.370Z,54.90
2018-07-16T10:52:00.607Z,55.40
2018-07-16T10:54:30.059Z,58.50
2018-07-16T10:56:58.533Z,57.10
2018-07-16T10:59:26.663Z,52.70
2018-07-16T11:01:55.535Z,50.20
2018-07-16T11:06:52.673Z,50.70
2018-07-16T11:09:21.507Z,51.80
2018-07-16T11:11:51.306Z,51.80
2018-07-16T11:14:20.751Z,50.60
2018-07-16T11:16:50.230Z,51.50
2018-07-16T11:19:18.574Z,53.50
2018-07-16T11:21:47.059Z,51.70
2018-07-16T11:24:15.421Z,50.30
2018-07-16T11:26:44.782Z,51.70
2018-07-16T11:29:13.666Z,52.10
2018-07-16T11:31:42.785Z,51.50
2018-07-16T11:34:12.394Z,50.50
2018-07-16T11:36:40.574Z,48.30
2018-07-16T11:39:09.552Z,49.20
2018-07-16T11:41:38.273Z,47.80
2018-07-16T11:44:06.622Z,46.50
2018-07-16T11:46:35.437Z,46.80
2018-07-16T11:49:04.024Z,44.60
2018-07-16T11:51:33.393Z,45.30
2018-07-16T11:54:02.387Z,45.60
2018-07-16T11:56:30.569Z,47.10
2018-07-16T11:58:59.498Z,43.10
2018-07-16T12:01:27.941Z,44.30
2018-07-16T12:03:57.517Z,42.70
2018-07-16T12:06:25.890Z,42.50
2018-07-16T12:08:56.158Z,44.50
2018-07-16T12:11:24.613Z,42.80
2018-07-16T12:13:53.519Z,43.80
2018-07-16T12:16:22.670Z,41.90
2018-07-16T12:21:19.881Z,41.50
2018-07-16T12:23:48.897Z,41.20
2018-07-16T12:26:18.493Z,42.70
2018-07-16T12:28:47.868Z,43.80
2018-07-16T12:31:16.378Z,42.80
2018-07-16T12:33:45.339Z,48.70
2018-07-16T12:36:13.563Z,50.10
2018-07-16T12:38:43.059Z,51.00
2018-07-16T12:41:11.338Z,52.70
2018-07-16T12:43:41.398Z,48.60
2018-07-16T12:48:37.983Z,48.80
2018-07-16T12:51:06.446Z,46.60
2018-07-16T12:53:35.897Z,47.30
2018-07-16T12:56:04.327Z,48.30
2018-07-16T12:58:33.061Z,48.10
2018-07-16T13:01:02.282Z,45.70
2018-07-16T13:03:31.074Z,43.30
2018-07-16T13:05:59.253Z,47.70
2018-07-16T13:08:27.921Z,51.50
2018-07-16T13:10:58.333Z,51.40
2018-07-16T13:13:27.076Z,49.60
2018-07-16T13:15:56.290Z,49.00
2018-07-16T13:18:24.658Z,48.40
2018-07-16T13:20:53.494Z,51.40
2018-07-16T13:23:23.116Z,50.20
2018-07-16T13:25:53.100Z,48.00
2018-07-16T13:28:22.905Z,50.20
2018-07-16T13:30:52.376Z,48.60
2018-07-16T13:33:20.930Z,48.30
2018-07-16T13:35:49.657Z,50.10
2018-07-16T13:38:19.312Z,48.00
2018-07-16T13:40:48.854Z,49.90
2018-07-16T13:43:18.093Z,51.30
2018-07-16T13:45:46.329Z,53.30
2018-07-16T13:48:14.505Z,53.00
2018-07-16T13:53:13.350Z,54.70
2018-07-16T13:55:43.366Z,54.30
2018-07-16T13:58:11.765Z,55.00
2018-07-16T14:00:40.318Z,52.90
2018-07-16T14:03:08.906Z,52.40
2018-07-16T14:05:37.811Z,52.60
2018-07-16T14:08:06.209Z,52.50
2018-07-16T14:10:35.251Z,52.70
2018-07-16T14:13:03.642Z,52.30
2018-07-16T14:15:32.386Z,54.90
2018-07-16T14:18:00.719Z,55.00
2018-07-16T14:20:30.188Z,53.00
2018-07-16T14:22:59.350Z,54.00
2018-07-16T14:25:28.334Z,53.00
2018-07-16T14:27:57.798Z,54.40
2018-07-16T14:30:26.214Z,52.20
2018-07-16T14:32:54.553Z,52.30
2018-07-16T14:37:52.209Z,52.70
2018-07-16T14:40:23.248Z,54.70
2018-07-16T14:42:52.250Z,53.90
2018-07-16T14:45:21.240Z,55.00
2018-07-16T14:47:51.605Z,55.10
2018-07-16T14:50:20.165Z,56.20
2018-07-16T14:52:49.385Z,55.40
2018-07-16T14:55:18.743Z,54.90
2018-07-16T14:57:47.767Z,55.00
2018-07-16T15:00:17.936Z,54.70
2018-07-16T15:02:46.170Z,56.20
2018-07-16T15:07:43.222Z,53.90
2018-07-16T15:10:12.287Z,54.80
2018-07-16T15:12:42.217Z,56.40
2018-07-16T15:15:11.202Z,56.30
2018-07-16T15:17:41.021Z,56.00
2018-07-16T15:20:09.740Z,55.30
2018-07-16T15:22:38.165Z,56.60
2018-07-16T15:25:07.209Z,56.60
2018-07-16T15:27:35.702Z,58.00
2018-07-16T15:30:04.074Z,58.60
2018-07-16T15:32:32.312Z,58.10
2018-07-16T15:35:01.779Z,57.70
2018-07-16T15:37:30.618Z,55.00
2018-07-16T15:39:59.509Z,55.10
2018-07-16T15:42:28.755Z,55.80
2018-07-16T15:47:26.844Z,54.20
2018-07-16T15:52:24.074Z,56.90
2018-07-16T15:54:53.498Z,55.70
2018-07-16T15:57:22.046Z,56.00
2018-07-16T15:59:50.904Z,56.90
2018-07-16T16:02:20.876Z,56.90
2018-07-16T16:04:50.070Z,57.50
2018-07-16T16:07:20.984Z,58.60
2018-07-16T16:09:49.183Z,56.00
2018-07-16T16:12:19.086Z,54.90
2018-07-16T16:14:49.033Z,56.20
2018-07-16T16:17:18.865Z,56.80
2018-07-16T16:19:47.636Z,56.40
2018-07-16T16:22:16.125Z,58.40
2018-07-16T16:24:45.056Z,60.80
2018-07-16T16:27:13.507Z,61.50
2018-07-16T16:29:42.840Z,56.40
2018-07-16T16:32:11.457Z,56.30
2018-07-16T16:34:40.612Z,57.20
2018-07-16T16:37:09.823Z,58.60
2018-07-16T16:39:38.035Z,59.10
2018-07-16T16:42:07.097Z,58.10
2018-07-16T16:44:36.704Z,57.80
2018-07-16T16:47:05.750Z,57.10
2018-07-16T16:49:34.813Z,59.90
2018-07-16T16:52:04.967Z,61.20
2018-07-16T16:54:34.503Z,62.80
2018-07-16T16:57:03.878Z,63.70
2018-07-16T16:59:32.746Z,64.70
2018-07-16T17:02:01.466Z,65.00
2018-07-16T17:04:30.805Z,63.10
2018-07-16T17:07:00.145Z,64.80
2018-07-16T17:09:28.911Z,66.60
2018-07-16T17:11:59.062Z,66.60
2018-07-16T17:14:27.291Z,67.30
2018-07-16T17:16:56.610Z,66.80
2018-07-16T17:19:25.298Z,67.80
2018-07-16T17:21:53.882Z,68.10
2018-07-16T17:24:22.837Z,68.30
2018-07-16T17:26:51.824Z,68.50
2018-07-16T17:29:21.236Z,68.40
2018-07-16T17:31:49.973Z,68.50
2018-07-16T17:34:18.977Z,69.90
2018-07-16T17:36:47.090Z,69.00
2018-07-16T17:39:15.835Z,70.10
2018-07-16T17:41:44.425Z,70.70
2018-07-16T17:44:12.818Z,71.40
2018-07-16T17:46:41.305Z,71.40
2018-07-16T17:49:11.493Z,72.10
2018-07-16T17:51:39.886Z,71.60
2018-07-16T17:54:08.295Z,72.50
2018-07-16T17:56:37.253Z,73.70
2018-07-16T17:59:06.993Z,73.70
2018-07-16T18:04:03.891Z,74.70
2018-07-16T18:06:32.385Z,75.00
2018-07-16T18:09:01.755Z,75.50
2018-07-16T18:11:30.875Z,75.70
2018-07-16T18:13:59.796Z,77.00
2018-07-16T18:16:28.287Z,76.20
2018-07-16T18:18:57.255Z,77.00
2018-07-16T18:21:27.451Z,76.50
2018-07-16T18:23:56.706Z,77.70
2018-07-16T18:26:26.414Z,77.30
2018-07-16T18:28:55.692Z,77.40
2018-07-16T18:31:24.429Z,78.40
2018-07-16T18:36:21.233Z,79.10
2018-07-16T18:38:49.483Z,81.10
2018-07-16T18:41:18.449Z,80.60
2018-07-16T18:43:48.653Z,80.80
2018-07-16T18:46:16.990Z,82.20
2018-07-16T18:48:45.546Z,82.30
2018-07-16T18:51:14.354Z,83.30
2018-07-16T18:53:44.430Z,84.10
2018-07-16T18:56:12.964Z,84.90
2018-07-16T18:58:42.515Z,85.70
2018-07-16T19:01:11.376Z,85.20
2018-07-16T19:03:43.591Z,85.80
2018-07-16T19:06:11.813Z,87.40
2018-07-16T19:08:41.357Z,87.30
2018-07-16T19:11:09.640Z,88.00
2018-07-16T19:13:38.473Z,89.30
2018-07-16T19:16:07.022Z,88.90
2018-07-16T19:18:36.673Z,89.60
2018-07-16T19:21:05.399Z,90.50
2018-07-16T19:23:35.106Z,90.80
2018-07-16T19:26:04.426Z,92.10
2018-07-16T19:28:32.822Z,91.20
2018-07-16T19:31:01.186Z,92.10
2018-07-16T19:33:29.671Z,92.10
2018-07-16T19:35:58.579Z,92.60
2018-07-16T19:38:27.846Z,93.40
2018-07-16T19:40:56.535Z,94.40
2018-07-16T19:43:26.912Z,95.10
2018-07-16T19:45:55.760Z,95.70
2018-07-16T19:48:24.546Z,96.70
2018-07-16T19:50:53.005Z,97.40
2018-07-16T19:53:21.907Z,97.50
2018-07-16T19:55:50.600Z,97.80
2018-07-16T19:58:19.426Z,98.10
2018-07-16T20:00:47.731Z,98.60
2018-07-16T20:03:16.552Z,98.60
2018-07-16T20:05:45.714Z,99.60
2018-07-16T20:08:15.737Z,99.70
2018-07-16T20:10:44.425Z,99.90
2018-07-16T20:13:13.138Z,99.90
2018-07-16T20:15:42.349Z,99.90
2018-07-16T20:18:10.580Z,99.90
2018-07-16T20:20:56.187Z,99.90
2018-07-16T20:23:25.613Z,99.90
2018-07-16T20:25:55.397Z,99.90
2018-07-16T20:28:23.841Z,99.90
2018-07-16T20:33:22.585Z,99.90
2018-07-16T20:35:51.469Z,99.90
2018-07-16T20:38:20.487Z,99.90
2018-07-16T20:40:50.578Z,99.90
2018-07-16T20:43:20.403Z,99.90
2018-07-16T20:45:48.530Z,99.90
2018-07-16T20:48:17.129Z,99.90
2018-07-16T20:50:45.607Z,99.90
2018-07-16T20:53:13.753Z,99.90
2018-07-16T20:55:42.606Z,99.90
2018-07-16T20:58:10.893Z,99.90
2018-07-16T21:00:41.147Z,99.90
2018-07-16T21:03:09.727Z,99.90
2018-07-16T21:05:38.445Z,99.90
2018-07-16T21:08:07.705Z,99.90
2018-07-16T21:10:36.273Z,99.90
2018-07-16T21:13:04.997Z,99.90
2018-07-16T21:15:33.636Z,99.90
2018-07-16T21:18:02.454Z,99.90
2018-07-16T21:20:32.285Z,99.90
2018-07-16T21:23:01.061Z,99.90
2018-07-16T21:25:30.177Z,99.90
2018-07-16T21:27:59.204Z,99.90
2018-07-16T21:30:27.543Z,99.90
2018-07-16T21:32:56.961Z,99.90
2018-07-16T21:35:25.595Z,99.90
2018-07-16T21:37:54.513Z,99.90
2018-07-16T21:40:23.245Z,99.90
2018-07-16T21:42:51.824Z,99.90
2018-07-16T21:45:20.948Z,99.90
2018-07-16T21:47:49.987Z,99.90
2018-07-16T21:50:18.946Z,99.90
2018-07-16T21:52:47.998Z,99.90
2018-07-16T21:55:17.471Z,99.90
2018-07-16T21:57:46.342Z,99.90
2018-07-16T22:00:21.763Z,99.90
2018-07-16T22:02:51.310Z,99.90
2018-07-16T22:05:19.590Z,99.90
2018-07-16T22:07:49.527Z,99.90
2018-07-16T22:10:19.548Z,99.90
2018-07-16T22:12:48.126Z,99.90
2018-07-16T22:15:21.408Z,99.90
2018-07-16T22:17:50.338Z,99.90
2018-07-16T22:20:19.526Z,99.90
2018-07-16T22:25:16.740Z,99.90
2018-07-16T22:27:45.778Z,99.90
2018-07-16T22:30:14.904Z,99.90
2018-07-16T22:32:43.014Z,99.90
2018-07-16T22:35:11.605Z,99.90
2018-07-16T22:37:40.877Z,99.90
2018-07-16T22:40:10.785Z,99.90
2018-07-16T22:42:39.494Z,99.90
2018-07-16T22:45:08.965Z,99.90
2018-07-16T22:47:37.831Z,99.90
2018-07-16T22:50:06.854Z,99.90
2018-07-16T22:52:35.460Z,99.90
2018-07-16T22:55:04.447Z,99.90
2018-07-16T22:57:33.897Z,99.90
2018-07-16T23:00:03.330Z,99.90
2018-07-16T23:05:00.266Z,99.90
2018-07-16T23:07:29.062Z,99.90
2018-07-16T23:09:57.134Z,99.90
2018-07-16T23:12:25.357Z,99.90
2018-07-16T23:14:53.846Z,99.90
2018-07-16T23:17:22.809Z,99.90
2018-07-16T23:19:52.013Z,99.90
2018-07-16T23:24:49.932Z,99.90
2018-07-16T23:27:18.734Z,99.90
2018-07-16T23:29:47.187Z,99.90
2018-07-16T23:32:15.796Z,99.90
2018-07-16T23:34:44.539Z,99.90
2018-07-16T23:37:13.047Z,99.90
2018-07-16T23:39:42.174Z,99.90
2018-07-16T23:42:10.767Z,99.90
2018-07-16T23:44:39.396Z,99.90
2018-07-16T23:47:08.279Z,99.90
2018-07-16T23:49:38.359Z,99.90
2018-07-16T23:52:07.344Z,99.90
2018-07-16T23:54:36.337Z,99.90
2018-07-16T23:57:06.210Z,99.90
2018-07-16T23:59:35.951Z,99.90
